sensor_id;sensor_type;location;lat;lon;timestamp;pressure;altitude;pressure_sealevel;temperature;humidity
6224;BME280;3145;42.726;23.342;2023-11-21T00:00:01;73378.88;;;-142.70;74.18
6224;BME280;3145;42.726;23.342;2023-11-21T00:02:29;73382.91;;;-142.70;74.44
6224;BME280;3145;42.726;23.342;2023-11-21T00:04:55;73378.88;;;-142.70;74.86
6224;BME280;3145;42.726;23.342;2023-11-21T00:07:22;73382.91;;;-142.70;74.51
6224;BME280;3145;42.726;23.342;2023-11-21T00:09:49;73384.94;;;-142.70;74.63
6224;BME280;3145;42.726;23.342;2023-11-21T00:12:16;73386.94;;;-142.70;74.65
6224;BME280;3145;42.726;23.342;2023-11-21T00:14:43;73380.91;;;-142.70;74.55
6224;BME280;3145;42.726;23.342;2023-11-21T00:17:10;73378.88;;;-142.70;74.60
6224;BME280;3145;42.726;23.342;2023-11-21T00:19:38;73380.91;;;-142.70;74.74
6224;BME280;3145;42.726;23.342;2023-11-21T00:22:04;73380.91;;;-142.70;74.93
6224;BME280;3145;42.726;23.342;2023-11-21T00:24:32;73382.91;;;-142.70;74.61
6224;BME280;3145;42.726;23.342;2023-11-21T00:26:59;73393.00;;;-142.70;74.39
6224;BME280;3145;42.726;23.342;2023-11-21T00:29:25;73388.97;;;-142.70;74.96
6224;BME280;3145;42.726;23.342;2023-11-21T00:31:52;73390.97;;;-142.70;75.03
6224;BME280;3145;42.726;23.342;2023-11-21T00:34:19;73386.94;;;-142.70;74.88
6224;BME280;3145;42.726;23.342;2023-11-21T00:36:47;73386.94;;;-142.70;75.03
6224;BME280;3145;42.726;23.342;2023-11-21T00:39:14;73388.97;;;-142.70;75.11
6224;BME280;3145;42.726;23.342;2023-11-21T00:41:41;73393.00;;;-142.70;75.06
6224;BME280;3145;42.726;23.342;2023-11-21T00:44:07;73395.00;;;-142.70;75.10
6224;BME280;3145;42.726;23.342;2023-11-21T00:46:34;73397.03;;;-142.70;75.30
6224;BME280;3145;42.726;23.342;2023-11-21T00:49:01;73390.97;;;-142.70;75.41
6224;BME280;3145;42.726;23.342;2023-11-21T00:51:29;73399.03;;;-142.70;75.25
6224;BME280;3145;42.726;23.342;2023-11-21T00:53:57;73399.03;;;-142.70;75.42
6224;BME280;3145;42.726;23.342;2023-11-21T00:56:24;73393.00;;;-142.70;75.11
6224;BME280;3145;42.726;23.342;2023-11-21T00:58:51;73390.97;;;-142.70;75.34
6224;BME280;3145;42.726;23.342;2023-11-21T01:01:18;73386.94;;;-142.70;75.27
6224;BME280;3145;42.726;23.342;2023-11-21T01:03:45;73390.97;;;-142.70;75.04
6224;BME280;3145;42.726;23.342;2023-11-21T01:06:13;73382.91;;;-142.70;75.34
6224;BME280;3145;42.726;23.342;2023-11-21T01:08:40;73386.94;;;-142.70;74.94
6224;BME280;3145;42.726;23.342;2023-11-21T01:11:08;73386.94;;;-142.70;74.90
6224;BME280;3145;42.726;23.342;2023-11-21T01:13:37;73386.94;;;-142.70;74.97
6224;BME280;3145;42.726;23.342;2023-11-21T01:16:04;73388.97;;;-142.70;74.89
6224;BME280;3145;42.726;23.342;2023-11-21T01:18:31;73390.97;;;-142.70;75.13
6224;BME280;3145;42.726;23.342;2023-11-21T01:20:58;73403.06;;;-142.70;74.76
6224;BME280;3145;42.726;23.342;2023-11-21T01:23:25;73415.16;;;-142.70;75.01
6224;BME280;3145;42.726;23.342;2023-11-21T01:25:52;73415.16;;;-142.70;74.84
6224;BME280;3145;42.726;23.342;2023-11-21T01:28:21;73407.09;;;-142.70;74.63
6224;BME280;3145;42.726;23.342;2023-11-21T01:30:48;73411.13;;;-142.70;74.65
6224;BME280;3145;42.726;23.342;2023-11-21T01:33:14;73415.16;;;-142.70;74.87
6224;BME280;3145;42.726;23.342;2023-11-21T01:35:42;73429.28;;;-142.70;74.58
6224;BME280;3145;42.726;23.342;2023-11-21T01:38:09;73433.28;;;-142.70;74.79
6224;BME280;3145;42.726;23.342;2023-11-21T01:40:35;73439.34;;;-142.70;75.05
6224;BME280;3145;42.726;23.342;2023-11-21T01:43:02;73433.28;;;-142.70;75.20
6224;BME280;3145;42.726;23.342;2023-11-21T01:45:31;73437.31;;;-142.70;75.10
6224;BME280;3145;42.726;23.342;2023-11-21T01:47:59;73435.31;;;-142.70;75.20
6224;BME280;3145;42.726;23.342;2023-11-21T01:50:26;73435.31;;;-142.70;74.97
6224;BME280;3145;42.726;23.342;2023-11-21T01:52:54;73445.38;;;-142.70;74.75
6224;BME280;3145;42.726;23.342;2023-11-21T01:55:22;73471.59;;;-142.70;75.01
6224;BME280;3145;42.726;23.342;2023-11-21T01:57:49;73471.59;;;-142.70;75.19
6224;BME280;3145;42.726;23.342;2023-11-21T02:00:16;73479.66;;;-142.70;75.06
6224;BME280;3145;42.726;23.342;2023-11-21T02:02:47;73477.63;;;-142.70;75.65
6224;BME280;3145;42.726;23.342;2023-11-21T02:05:15;73469.56;;;-142.70;76.02
6224;BME280;3145;42.726;23.342;2023-11-21T02:07:44;73463.53;;;-142.70;76.01
6224;BME280;3145;42.726;23.342;2023-11-21T02:10:13;73465.53;;;-142.70;75.96
6224;BME280;3145;42.726;23.342;2023-11-21T02:12:40;73455.47;;;-142.70;75.91
6224;BME280;3145;42.726;23.342;2023-11-21T02:15:08;73471.59;;;-142.70;75.84
6224;BME280;3145;42.726;23.342;2023-11-21T02:17:40;73473.59;;;-142.70;75.94
6224;BME280;3145;42.726;23.342;2023-11-21T02:20:10;73467.56;;;-142.70;75.69
6224;BME280;3145;42.726;23.342;2023-11-21T02:22:41;73467.56;;;-142.70;75.56
6224;BME280;3145;42.726;23.342;2023-11-21T02:25:10;73469.56;;;-142.70;75.76
6224;BME280;3145;42.726;23.342;2023-11-21T02:27:36;73467.56;;;-142.70;75.69
6224;BME280;3145;42.726;23.342;2023-11-21T02:30:04;73457.47;;;-142.70;75.90
6224;BME280;3145;42.726;23.342;2023-11-21T02:32:33;73463.53;;;-142.70;75.96
6224;BME280;3145;42.726;23.342;2023-11-21T02:35:00;73451.44;;;-142.70;76.04
6224;BME280;3145;42.726;23.342;2023-11-21T02:37:28;73455.47;;;-142.70;76.04
6224;BME280;3145;42.726;23.342;2023-11-21T02:39:54;73451.44;;;-142.70;76.07
6224;BME280;3145;42.726;23.342;2023-11-21T02:42:22;73447.41;;;-142.70;75.98
6224;BME280;3145;42.726;23.342;2023-11-21T02:44:49;73465.53;;;-142.70;76.17
6224;BME280;3145;42.726;23.342;2023-11-21T02:47:16;73457.47;;;-142.70;76.17
6224;BME280;3145;42.726;23.342;2023-11-21T02:49:43;73455.47;;;-142.70;76.07
6224;BME280;3145;42.726;23.342;2023-11-21T02:52:09;73457.47;;;-142.70;75.96
6224;BME280;3145;42.726;23.342;2023-11-21T02:54:36;73459.50;;;-142.70;76.05
6224;BME280;3145;42.726;23.342;2023-11-21T02:57:03;73467.56;;;-142.70;76.02
6224;BME280;3145;42.726;23.342;2023-11-21T02:59:32;73473.59;;;-142.70;76.20
6224;BME280;3145;42.726;23.342;2023-11-21T03:01:59;73471.59;;;-142.70;76.27
6224;BME280;3145;42.726;23.342;2023-11-21T03:04:25;73471.59;;;-142.70;76.24
6224;BME280;3145;42.726;23.342;2023-11-21T03:06:52;73463.53;;;-142.70;76.17
6224;BME280;3145;42.726;23.342;2023-11-21T03:09:19;73469.56;;;-142.70;75.93
6224;BME280;3145;42.726;23.342;2023-11-21T03:11:46;73479.66;;;-142.70;75.57
6224;BME280;3145;42.726;23.342;2023-11-21T03:14:12;73481.66;;;-142.70;75.77
6224;BME280;3145;42.726;23.342;2023-11-21T03:16:40;73477.63;;;-142.70;76.12
6224;BME280;3145;42.726;23.342;2023-11-21T03:19:07;73485.69;;;-142.70;75.95
6224;BME280;3145;42.726;23.342;2023-11-21T03:21:34;73497.78;;;-142.70;76.11
6224;BME280;3145;42.726;23.342;2023-11-21T03:24:01;73507.84;;;-142.70;76.29
6224;BME280;3145;42.726;23.342;2023-11-21T03:26:28;73507.84;;;-142.70;76.27
6224;BME280;3145;42.726;23.342;2023-11-21T03:28:55;73505.84;;;-142.70;76.42
6224;BME280;3145;42.726;23.342;2023-11-21T03:31:21;73515.91;;;-142.70;76.34
6224;BME280;3145;42.726;23.342;2023-11-21T03:33:50;73511.88;;;-142.70;76.27
6224;BME280;3145;42.726;23.342;2023-11-21T03:36:18;73511.88;;;-142.70;76.53
6224;BME280;3145;42.726;23.342;2023-11-21T03:38:44;73511.88;;;-142.70;76.57
6224;BME280;3145;42.726;23.342;2023-11-21T03:41:11;73509.88;;;-142.70;76.65
6224;BME280;3145;42.726;23.342;2023-11-21T03:43:38;73499.78;;;-142.70;76.85
6224;BME280;3145;42.726;23.342;2023-11-21T03:46:05;73507.84;;;-142.70;76.79
6224;BME280;3145;42.726;23.342;2023-11-21T03:48:32;73509.88;;;-142.70;76.52
6224;BME280;3145;42.726;23.342;2023-11-21T03:51:00;73530.03;;;-142.70;76.67
6224;BME280;3145;42.726;23.342;2023-11-21T03:53:27;73556.22;;;-142.70;76.95
6224;BME280;3145;42.726;23.342;2023-11-21T03:55:54;73588.47;;;-142.70;77.66
6224;BME280;3145;42.726;23.342;2023-11-21T03:58:21;73600.56;;;-142.70;78.35
6224;BME280;3145;42.726;23.342;2023-11-21T04:00:48;73604.56;;;-142.70;78.88
6224;BME280;3145;42.726;23.342;2023-11-21T04:03:15;73604.56;;;-142.70;79.45
6224;BME280;3145;42.726;23.342;2023-11-21T04:05:42;73612.63;;;-142.70;79.67
6224;BME280;3145;42.726;23.342;2023-11-21T04:08:10;73610.63;;;-142.70;80.52
6224;BME280;3145;42.726;23.342;2023-11-21T04:10:36;73608.59;;;-142.70;80.82
6224;BME280;3145;42.726;23.342;2023-11-21T04:13:04;73600.56;;;-142.70;80.95
6224;BME280;3145;42.726;23.342;2023-11-21T04:15:32;73596.53;;;-142.70;81.13
6224;BME280;3145;42.726;23.342;2023-11-21T04:17:58;73604.56;;;-142.70;81.60
6224;BME280;3145;42.726;23.342;2023-11-21T04:20:25;73612.63;;;-142.70;81.88
6224;BME280;3145;42.726;23.342;2023-11-21T04:22:52;73614.66;;;-142.70;81.67
6224;BME280;3145;42.726;23.342;2023-11-21T04:25:20;73614.66;;;-142.70;82.39
6224;BME280;3145;42.726;23.342;2023-11-21T04:27:48;73612.63;;;-142.70;82.69
6224;BME280;3145;42.726;23.342;2023-11-21T04:30:15;73598.53;;;-142.70;82.78
6224;BME280;3145;42.726;23.342;2023-11-21T04:32:42;73594.50;;;-142.70;83.04
6224;BME280;3145;42.726;23.342;2023-11-21T04:35:09;73584.44;;;-142.70;83.09
6224;BME280;3145;42.726;23.342;2023-11-21T04:37:36;73580.41;;;-142.70;83.11
6224;BME280;3145;42.726;23.342;2023-11-21T04:40:03;73572.34;;;-142.70;82.67
6224;BME280;3145;42.726;23.342;2023-11-21T04:42:34;73578.38;;;-142.70;82.53
6224;BME280;3145;42.726;23.342;2023-11-21T04:45:01;73578.38;;;-142.70;82.81
6224;BME280;3145;42.726;23.342;2023-11-21T04:47:30;73574.34;;;-142.70;82.67
6224;BME280;3145;42.726;23.342;2023-11-21T04:49:57;73564.28;;;-142.70;82.58
6224;BME280;3145;42.726;23.342;2023-11-21T04:52:24;73568.31;;;-142.70;82.76
6224;BME280;3145;42.726;23.342;2023-11-21T04:54:50;73568.31;;;-142.70;82.60
6224;BME280;3145;42.726;23.342;2023-11-21T04:57:19;73564.28;;;-142.70;82.20
6224;BME280;3145;42.726;23.342;2023-11-21T04:59:48;73552.19;;;-142.70;82.26
6224;BME280;3145;42.726;23.342;2023-11-21T05:02:15;73544.13;;;-142.70;82.08
6224;BME280;3145;42.726;23.342;2023-11-21T05:04:44;73540.09;;;-142.70;81.60
6224;BME280;3145;42.726;23.342;2023-11-21T05:07:11;73528.00;;;-142.70;81.48
6224;BME280;3145;42.726;23.342;2023-11-21T05:09:41;73530.03;;;-142.70;81.37
6224;BME280;3145;42.726;23.342;2023-11-21T05:12:09;73526.00;;;-142.70;81.27
6224;BME280;3145;42.726;23.342;2023-11-21T05:14:36;73523.97;;;-142.70;80.93
6224;BME280;3145;42.726;23.342;2023-11-21T05:17:05;73511.88;;;-142.70;81.20
6224;BME280;3145;42.726;23.342;2023-11-21T05:19:33;73495.75;;;-142.70;81.08
6224;BME280;3145;42.726;23.342;2023-11-21T05:22:00;73499.78;;;-142.70;80.61
6224;BME280;3145;42.726;23.342;2023-11-21T05:24:27;73475.63;;;-142.70;80.93
6224;BME280;3145;42.726;23.342;2023-11-21T05:26:54;73479.66;;;-142.70;81.63
6224;BME280;3145;42.726;23.342;2023-11-21T05:29:22;73481.66;;;-142.70;81.85
6224;BME280;3145;42.726;23.342;2023-11-21T05:31:48;73489.72;;;-142.70;81.51
6224;BME280;3145;42.726;23.342;2023-11-21T05:34:17;73497.78;;;-142.70;81.21
6224;BME280;3145;42.726;23.342;2023-11-21T05:36:43;73457.47;;;-142.70;83.05
6224;BME280;3145;42.726;23.342;2023-11-21T05:39:11;73435.31;;;-142.70;84.41
6224;BME280;3145;42.726;23.342;2023-11-21T05:41:38;73455.47;;;-142.70;83.42
6224;BME280;3145;42.726;23.342;2023-11-21T05:44:05;73455.47;;;-142.70;84.26
6224;BME280;3145;42.726;23.342;2023-11-21T05:46:31;73475.63;;;-142.70;82.96
6224;BME280;3145;42.726;23.342;2023-11-21T05:48:58;73471.59;;;-142.70;82.01
6224;BME280;3145;42.726;23.342;2023-11-21T05:51:26;73499.78;;;-142.70;81.03
6224;BME280;3145;42.726;23.342;2023-11-21T05:53:53;73540.09;;;-142.70;80.12
6224;BME280;3145;42.726;23.342;2023-11-21T05:56:20;73556.22;;;-142.70;80.52
6224;BME280;3145;42.726;23.342;2023-11-21T05:58:46;73572.34;;;-142.70;80.38
6224;BME280;3145;42.726;23.342;2023-11-21T06:01:13;73584.44;;;-142.70;81.33
6224;BME280;3145;42.726;23.342;2023-11-21T06:03:40;73584.44;;;-142.70;81.73
6224;BME280;3145;42.726;23.342;2023-11-21T06:06:07;73572.34;;;-142.70;82.07
6224;BME280;3145;42.726;23.342;2023-11-21T06:08:36;73572.34;;;-142.70;81.95
6224;BME280;3145;42.726;23.342;2023-11-21T06:11:03;73548.16;;;-142.70;82.49
6224;BME280;3145;42.726;23.342;2023-11-21T06:13:29;73540.09;;;-142.70;82.03
6224;BME280;3145;42.726;23.342;2023-11-21T06:15:56;73528.00;;;-142.70;82.49
6224;BME280;3145;42.726;23.342;2023-11-21T06:18:23;73515.91;;;-142.70;81.88
6224;BME280;3145;42.726;23.342;2023-11-21T06:20:50;73499.78;;;-142.70;81.67
6224;BME280;3145;42.726;23.342;2023-11-21T06:23:18;73493.75;;;-142.70;81.10
6224;BME280;3145;42.726;23.342;2023-11-21T06:25:46;73487.69;;;-142.70;80.76
6224;BME280;3145;42.726;23.342;2023-11-21T06:28:13;73473.59;;;-142.70;80.41
6224;BME280;3145;42.726;23.342;2023-11-21T06:30:42;73459.50;;;-142.70;80.40
6224;BME280;3145;42.726;23.342;2023-11-21T06:33:10;73423.22;;;-142.70;80.38
6224;BME280;3145;42.726;23.342;2023-11-21T06:35:37;73419.19;;;-142.70;79.31
6224;BME280;3145;42.726;23.342;2023-11-21T06:38:03;73395.00;;;-142.70;79.04
6224;BME280;3145;42.726;23.342;2023-11-21T06:40:30;73395.00;;;-142.70;77.93
6224;BME280;3145;42.726;23.342;2023-11-21T06:43:00;73338.59;;;-142.70;79.30
6224;BME280;3145;42.726;23.342;2023-11-21T06:45:27;73262.03;;;-142.70;81.46
6224;BME280;3145;42.726;23.342;2023-11-21T06:47:54;73189.47;;;-142.70;81.83
6224;BME280;3145;42.726;23.342;2023-11-21T06:50:20;73141.13;;;-142.70;79.94
6224;BME280;3145;42.726;23.342;2023-11-21T06:52:47;73125.00;;;-142.70;76.67
6224;BME280;3145;42.726;23.342;2023-11-21T06:55:15;73096.81;;;-142.70;74.40
6224;BME280;3145;42.726;23.342;2023-11-21T06:57:42;73062.56;;;-142.70;73.09
6224;BME280;3145;42.726;23.342;2023-11-21T07:00:12;73032.31;;;-142.70;72.18
6224;BME280;3145;42.726;23.342;2023-11-21T07:02:40;73024.28;;;-142.70;70.24
6224;BME280;3145;42.726;23.342;2023-11-21T07:05:07;73024.28;;;-142.70;68.87
6224;BME280;3145;42.726;23.342;2023-11-21T07:07:33;72996.06;;;-142.70;69.73
6224;BME280;3145;42.726;23.342;2023-11-21T07:10:01;72973.91;;;-142.70;69.28
6224;BME280;3145;42.726;23.342;2023-11-21T07:12:28;72937.63;;;-142.70;69.32
6224;BME280;3145;42.726;23.342;2023-11-21T07:14:56;72893.31;;;-142.70;68.40
6224;BME280;3145;42.726;23.342;2023-11-21T07:17:24;72857.03;;;-142.70;67.14
6224;BME280;3145;42.726;23.342;2023-11-21T07:19:51;72834.88;;;-142.70;65.44
6224;BME280;3145;42.726;23.342;2023-11-21T07:22:17;72828.84;;;-142.70;64.43
6224;BME280;3145;42.726;23.342;2023-11-21T07:24:48;72818.75;;;-142.70;64.62
6224;BME280;3145;42.726;23.342;2023-11-21T07:27:16;72806.69;;;-142.70;64.01
6224;BME280;3145;42.726;23.342;2023-11-21T07:29:43;72788.53;;;-142.70;62.55
6224;BME280;3145;42.726;23.342;2023-11-21T07:32:09;72794.59;;;-142.70;61.59
6224;BME280;3145;42.726;23.342;2023-11-21T07:34:37;72784.53;;;-142.70;60.14
6224;BME280;3145;42.726;23.342;2023-11-21T07:37:04;72780.50;;;-142.70;58.90
6224;BME280;3145;42.726;23.342;2023-11-21T07:39:31;72754.28;;;-142.70;58.82
6224;BME280;3145;42.726;23.342;2023-11-21T07:41:57;72750.28;;;-142.70;56.78
6224;BME280;3145;42.726;23.342;2023-11-21T07:44:24;72748.25;;;-142.70;57.09
6224;BME280;3145;42.726;23.342;2023-11-21T07:46:51;72754.28;;;-142.70;56.23
6224;BME280;3145;42.726;23.342;2023-11-21T07:49:25;72756.31;;;-142.70;57.37
6224;BME280;3145;42.726;23.342;2023-11-21T07:51:53;72742.22;;;-142.70;56.67
6224;BME280;3145;42.726;23.342;2023-11-21T07:54:20;72705.94;;;-142.70;56.30
6224;BME280;3145;42.726;23.342;2023-11-21T07:56:46;72689.84;;;-142.70;56.00
6224;BME280;3145;42.726;23.342;2023-11-21T07:59:13;72677.75;;;-142.70;55.67
6224;BME280;3145;42.726;23.342;2023-11-21T08:01:40;72673.72;;;-142.70;54.88
6224;BME280;3145;42.726;23.342;2023-11-21T08:04:08;72726.09;;;-142.70;54.83
6224;BME280;3145;42.726;23.342;2023-11-21T08:06:35;72760.34;;;-142.70;55.52
6224;BME280;3145;42.726;23.342;2023-11-21T08:09:03;72794.59;;;-142.70;56.11
6224;BME280;3145;42.726;23.342;2023-11-21T08:11:30;72800.63;;;-142.70;56.81
6224;BME280;3145;42.726;23.342;2023-11-21T08:13:58;72818.75;;;-142.70;57.47
6224;BME280;3145;42.726;23.342;2023-11-21T08:16:25;72881.22;;;-142.70;58.92
6224;BME280;3145;42.726;23.342;2023-11-21T08:18:52;72846.97;;;-142.70;58.72
6224;BME280;3145;42.726;23.342;2023-11-21T08:21:19;72818.75;;;-142.70;58.86
6224;BME280;3145;42.726;23.342;2023-11-21T08:23:46;72804.66;;;-142.70;58.65
6224;BME280;3145;42.726;23.342;2023-11-21T08:26:20;72798.63;;;-142.70;58.38
6224;BME280;3145;42.726;23.342;2023-11-21T08:28:47;72806.69;;;-142.70;58.48
6224;BME280;3145;42.726;23.342;2023-11-21T08:31:14;72798.63;;;-142.70;58.42
6224;BME280;3145;42.726;23.342;2023-11-21T08:33:41;72784.53;;;-142.70;58.60
6224;BME280;3145;42.726;23.342;2023-11-21T08:36:08;72796.59;;;-142.70;58.84
6224;BME280;3145;42.726;23.342;2023-11-21T08:38:36;72788.53;;;-142.70;58.90
6224;BME280;3145;42.726;23.342;2023-11-21T08:41:05;72770.41;;;-142.70;58.37
6224;BME280;3145;42.726;23.342;2023-11-21T08:43:35;72740.19;;;-142.70;58.61
6224;BME280;3145;42.726;23.342;2023-11-21T08:46:05;72738.19;;;-142.70;57.89
6224;BME280;3145;42.726;23.342;2023-11-21T08:48:35;72724.06;;;-142.70;57.63
6224;BME280;3145;42.726;23.342;2023-11-21T08:51:01;72736.16;;;-142.70;57.24
6224;BME280;3145;42.726;23.342;2023-11-21T08:53:29;72730.13;;;-142.70;57.54
6224;BME280;3145;42.726;23.342;2023-11-21T08:55:56;72746.25;;;-142.70;58.24
6224;BME280;3145;42.726;23.342;2023-11-21T08:58:23;72746.25;;;-142.70;58.00
6224;BME280;3145;42.726;23.342;2023-11-21T09:00:51;72774.44;;;-142.70;57.96
6224;BME280;3145;42.726;23.342;2023-11-21T09:03:17;72786.53;;;-142.70;58.54
6224;BME280;3145;42.726;23.342;2023-11-21T09:05:44;72766.38;;;-142.70;58.81
6224;BME280;3145;42.726;23.342;2023-11-21T09:08:11;72736.16;;;-142.70;59.35
6224;BME280;3145;42.726;23.342;2023-11-21T09:10:38;72714.00;;;-142.70;58.18
6224;BME280;3145;42.726;23.342;2023-11-21T09:13:05;72748.25;;;-142.70;58.12
6224;BME280;3145;42.726;23.342;2023-11-21T09:15:35;72766.38;;;-142.70;59.36
6224;BME280;3145;42.726;23.342;2023-11-21T09:18:04;72790.56;;;-142.70;60.22
6224;BME280;3145;42.726;23.342;2023-11-21T09:20:30;72770.41;;;-142.70;60.94
6224;BME280;3145;42.726;23.342;2023-11-21T09:22:57;72758.31;;;-142.70;60.69
6224;BME280;3145;42.726;23.342;2023-11-21T09:25:24;72738.19;;;-142.70;60.53
6224;BME280;3145;42.726;23.342;2023-11-21T09:27:50;72714.00;;;-142.70;60.94
6224;BME280;3145;42.726;23.342;2023-11-21T09:30:17;72716.03;;;-142.70;60.47
6224;BME280;3145;42.726;23.342;2023-11-21T09:32:45;72705.94;;;-142.70;59.12
6224;BME280;3145;42.726;23.342;2023-11-21T09:35:14;72701.91;;;-142.70;58.87
6224;BME280;3145;42.726;23.342;2023-11-21T09:37:41;72697.88;;;-142.70;59.98
6224;BME280;3145;42.726;23.342;2023-11-21T09:40:10;72693.84;;;-142.70;61.02
6224;BME280;3145;42.726;23.342;2023-11-21T09:42:42;72661.63;;;-142.70;60.05
6224;BME280;3145;42.726;23.342;2023-11-21T09:45:17;72633.41;;;-142.70;59.57
6224;BME280;3145;42.726;23.342;2023-11-21T09:47:46;72613.28;;;-142.70;59.98
6224;BME280;3145;42.726;23.342;2023-11-21T09:50:17;72591.13;;;-142.70;59.44
6224;BME280;3145;42.726;23.342;2023-11-21T09:52:52;72591.13;;;-142.70;58.85
6224;BME280;3145;42.726;23.342;2023-11-21T09:55:21;72593.13;;;-142.70;58.43
6224;BME280;3145;42.726;23.342;2023-11-21T09:57:48;72570.97;;;-142.70;57.97
6224;BME280;3145;42.726;23.342;2023-11-21T10:00:16;72544.78;;;-142.70;57.54
6224;BME280;3145;42.726;23.342;2023-11-21T10:02:45;72544.78;;;-142.70;57.04
6224;BME280;3145;42.726;23.342;2023-11-21T10:05:12;72524.63;;;-142.70;56.53
6224;BME280;3145;42.726;23.342;2023-11-21T10:07:42;72522.63;;;-142.70;55.63
6224;BME280;3145;42.726;23.342;2023-11-21T10:10:10;72492.41;;;-142.70;56.12
6224;BME280;3145;42.726;23.342;2023-11-21T10:12:37;72484.34;;;-142.70;54.92
6224;BME280;3145;42.726;23.342;2023-11-21T10:15:08;72462.19;;;-142.70;55.17
6224;BME280;3145;42.726;23.342;2023-11-21T10:17:38;72442.03;;;-142.70;55.31
6224;BME280;3145;42.726;23.342;2023-11-21T10:20:10;72395.72;;;-142.70;55.36
6224;BME280;3145;42.726;23.342;2023-11-21T10:22:41;72375.56;;;-142.70;54.21
6224;BME280;3145;42.726;23.342;2023-11-21T10:25:08;72343.34;;;-142.70;53.29
6224;BME280;3145;42.726;23.342;2023-11-21T10:27:36;72333.25;;;-142.70;51.24
6224;BME280;3145;42.726;23.342;2023-11-21T10:30:05;72359.44;;;-142.70;50.64
6224;BME280;3145;42.726;23.342;2023-11-21T10:32:33;72339.31;;;-142.70;50.87
6224;BME280;3145;42.726;23.342;2023-11-21T10:35:00;72331.25;;;-142.70;50.59
6224;BME280;3145;42.726;23.342;2023-11-21T10:37:31;72305.06;;;-142.70;49.86
6224;BME280;3145;42.726;23.342;2023-11-21T10:39:59;72290.97;;;-142.70;48.86
6224;BME280;3145;42.726;23.342;2023-11-21T10:42:26;72282.91;;;-142.70;47.88
6224;BME280;3145;42.726;23.342;2023-11-21T10:44:54;72286.94;;;-142.70;48.78
6224;BME280;3145;42.726;23.342;2023-11-21T10:47:21;72280.88;;;-142.70;48.23
6224;BME280;3145;42.726;23.342;2023-11-21T10:49:49;72286.94;;;-142.70;48.06
6224;BME280;3145;42.726;23.342;2023-11-21T10:52:18;72307.06;;;-142.70;48.04
6224;BME280;3145;42.726;23.342;2023-11-21T10:54:46;72301.03;;;-142.70;48.02
6224;BME280;3145;42.726;23.342;2023-11-21T10:57:18;72290.97;;;-142.70;47.52
6224;BME280;3145;42.726;23.342;2023-11-21T10:59:46;72282.91;;;-142.70;48.27
6224;BME280;3145;42.726;23.342;2023-11-21T11:02:21;72278.88;;;-142.70;47.36
6224;BME280;3145;42.726;23.342;2023-11-21T11:04:52;72274.84;;;-142.70;47.49
6224;BME280;3145;42.726;23.342;2023-11-21T11:07:21;72282.91;;;-142.70;47.14
6224;BME280;3145;42.726;23.342;2023-11-21T11:09:48;72295.00;;;-142.70;47.95
6224;BME280;3145;42.726;23.342;2023-11-21T11:12:17;72315.13;;;-142.70;48.29
6224;BME280;3145;42.726;23.342;2023-11-21T11:14:44;72301.03;;;-142.70;48.40
6224;BME280;3145;42.726;23.342;2023-11-21T11:17:12;72301.03;;;-142.70;48.71
6224;BME280;3145;42.726;23.342;2023-11-21T11:19:40;72295.00;;;-142.70;49.03
6224;BME280;3145;42.726;23.342;2023-11-21T11:22:14;72274.84;;;-142.70;49.06
6224;BME280;3145;42.726;23.342;2023-11-21T11:25:00;72286.94;;;-142.70;48.94
6224;BME280;3145;42.726;23.342;2023-11-21T11:27:38;72270.81;;;-142.70;48.50
6224;BME280;3145;42.726;23.342;2023-11-21T11:30:16;72282.91;;;-142.70;48.75
6224;BME280;3145;42.726;23.342;2023-11-21T11:32:53;72292.97;;;-142.70;49.36
6224;BME280;3145;42.726;23.342;2023-11-21T11:35:26;72270.81;;;-142.70;49.48
6224;BME280;3145;42.726;23.342;2023-11-21T11:37:54;72266.78;;;-142.70;49.46
6224;BME280;3145;42.726;23.342;2023-11-21T11:40:22;72282.91;;;-142.70;48.73
6224;BME280;3145;42.726;23.342;2023-11-21T11:42:57;72292.97;;;-142.70;48.67
6224;BME280;3145;42.726;23.342;2023-11-21T11:45:32;72288.94;;;-142.70;49.15
6224;BME280;3145;42.726;23.342;2023-11-21T11:48:00;72282.91;;;-142.70;49.52
6224;BME280;3145;42.726;23.342;2023-11-21T11:50:26;72278.88;;;-142.70;49.50
6224;BME280;3145;42.726;23.342;2023-11-21T11:52:54;72268.81;;;-142.70;50.05
6224;BME280;3145;42.726;23.342;2023-11-21T11:55:24;72262.75;;;-142.70;50.72
6224;BME280;3145;42.726;23.342;2023-11-21T11:57:52;72258.72;;;-142.70;51.29
6224;BME280;3145;42.726;23.342;2023-11-21T12:00:33;72246.66;;;-142.70;51.48
6224;BME280;3145;42.726;23.342;2023-11-21T12:03:04;72246.66;;;-142.70;51.43
6224;BME280;3145;42.726;23.342;2023-11-21T12:05:32;72262.75;;;-142.70;52.74
6224;BME280;3145;42.726;23.342;2023-11-21T12:08:02;72274.84;;;-142.70;52.78
6224;BME280;3145;42.726;23.342;2023-11-21T12:10:30;72280.88;;;-142.70;53.34
6224;BME280;3145;42.726;23.342;2023-11-21T12:13:00;72282.91;;;-142.70;54.94
6224;BME280;3145;42.726;23.342;2023-11-21T12:15:29;72295.00;;;-142.70;56.28
6224;BME280;3145;42.726;23.342;2023-11-21T12:17:56;72307.06;;;-142.70;62.39
6224;BME280;3145;42.726;23.342;2023-11-21T12:20:24;72315.13;;;-142.70;65.28
6224;BME280;3145;42.726;23.342;2023-11-21T12:22:53;72317.16;;;-142.70;67.34
6224;BME280;3145;42.726;23.342;2023-11-21T12:25:21;72319.16;;;-142.70;68.33
6224;BME280;3145;42.726;23.342;2023-11-21T12:27:49;72321.19;;;-142.70;67.28
6224;BME280;3145;42.726;23.342;2023-11-21T12:30:18;72321.19;;;-142.70;66.43
6224;BME280;3145;42.726;23.342;2023-11-21T12:32:50;72335.28;;;-142.70;66.00
6224;BME280;3145;42.726;23.342;2023-11-21T12:35:18;72335.28;;;-142.70;66.22
6224;BME280;3145;42.726;23.342;2023-11-21T12:37:47;72339.31;;;-142.70;66.77
6224;BME280;3145;42.726;23.342;2023-11-21T12:40:15;72359.44;;;-142.70;67.20
6224;BME280;3145;42.726;23.342;2023-11-21T12:42:44;72353.41;;;-142.70;67.28
6224;BME280;3145;42.726;23.342;2023-11-21T12:45:19;72343.34;;;-142.70;67.71
6224;BME280;3145;42.726;23.342;2023-11-21T12:47:48;72331.25;;;-142.70;67.78
6224;BME280;3145;42.726;23.342;2023-11-21T12:50:18;72359.44;;;-142.70;67.46
6224;BME280;3145;42.726;23.342;2023-11-21T12:52:49;72347.38;;;-142.70;67.84